createdAt,value
2022-09-14T00:01:14.468Z,77.63
2022-09-14T00:03:40.358Z,77.46
2022-09-14T00:06:11.130Z,77.39
2022-09-14T00:08:38.420Z,77.29
2022-09-14T00:11:11.887Z,76.86
2022-09-14T00:13:41.588Z,77.52
2022-09-14T00:16:16.107Z,76.75
2022-09-14T00:18:43.418Z,77.19
2022-09-14T00:21:12.013Z,77.04
2022-09-14T00:23:40.520Z,76.54
2022-09-14T00:26:11.841Z,76.78
2022-09-14T00:28:43.925Z,76.90
2022-09-14T00:31:11.878Z,76.69
2022-09-14T00:33:41.128Z,76.57
2022-09-14T00:36:10.969Z,76.85
2022-09-14T00:38:39.117Z,76.70
2022-09-14T00:41:07.804Z,76.96
2022-09-14T00:44:01.910Z,77.00
2022-09-14T00:46:32.354Z,77.05
2022-09-14T00:49:01.745Z,77.43
2022-09-14T00:51:33.065Z,77.07
2022-09-14T00:54:04.199Z,77.47
2022-09-14T00:56:31.293Z,76.95
2022-09-14T00:59:00.106Z,76.92
2022-09-14T01:01:27.331Z,77.03
2022-09-14T01:03:54.217Z,77.09
2022-09-14T01:06:48.849Z,77.36
2022-09-14T01:09:32.262Z,77.26
2022-09-14T01:12:13.905Z,77.08
2022-09-14T01:15:05.501Z,77.36
2022-09-14T01:18:04.539Z,77.26
2022-09-14T01:20:39.873Z,77.45
2022-09-14T01:23:29.547Z,77.28
2022-09-14T01:26:40.432Z,77.26
2022-09-14T01:29:17.967Z,77.72
2022-09-14T01:31:57.750Z,78.08
2022-09-14T01:34:31.946Z,77.78
2022-09-14T01:37:06.327Z,78.01
2022-09-14T01:39:36.118Z,78.26
2022-09-14T01:42:04.257Z,78.33
2022-09-14T01:44:42.068Z,78.61
2022-09-14T01:47:26.505Z,78.51
2022-09-14T01:49:59.251Z,78.88
2022-09-14T01:52:34.074Z,78.87
2022-09-14T01:55:11.354Z,79.70
2022-09-14T01:57:46.325Z,80.00
2022-09-14T02:00:17.571Z,80.25
2022-09-14T02:03:03.960Z,80.70
2022-09-14T02:05:40.551Z,80.69
2022-09-14T02:08:08.891Z,81.04
2022-09-14T02:10:35.834Z,81.39
2022-09-14T02:13:02.736Z,81.85
2022-09-14T02:15:29.778Z,81.66
2022-09-14T02:17:56.541Z,81.67
2022-09-14T02:20:52.744Z,81.76
2022-09-14T02:23:19.865Z,81.53
2022-09-14T02:25:47.597Z,81.50
2022-09-14T02:28:14.639Z,81.71
2022-09-14T02:31:18.613Z,81.84
2022-09-14T02:34:03.094Z,81.42
2022-09-14T02:36:54.174Z,81.78
2022-09-14T02:39:56.319Z,81.58
2022-09-14T02:42:24.022Z,81.47
2022-09-14T02:45:16.606Z,81.26
2022-09-14T02:48:12.911Z,80.88
2022-09-14T02:51:05.693Z,80.81
2022-09-14T02:53:50.679Z,81.01
2022-09-14T02:56:19.397Z,80.53
2022-09-14T02:58:46.573Z,80.37
2022-09-14T03:01:19.143Z,80.35
2022-09-14T03:03:46.084Z,80.63
2022-09-14T03:06:13.685Z,81.01
2022-09-14T03:08:40.943Z,81.11
2022-09-14T03:11:07.746Z,81.10
2022-09-14T03:13:35.908Z,80.96
2022-09-14T03:16:14.892Z,81.05
2022-09-14T03:18:42.398Z,81.32
2022-09-14T03:21:15.617Z,81.41
2022-09-14T03:23:48.383Z,81.57
2022-09-14T03:26:20.648Z,81.61
2022-09-14T03:28:51.511Z,81.61
2022-09-14T03:31:18.896Z,81.72
2022-09-14T03:33:45.844Z,81.47
2022-09-14T03:36:18.645Z,82.01
2022-09-14T03:38:48.324Z,82.36
2022-09-14T03:41:16.017Z,82.34
2022-09-14T03:43:43.520Z,82.17
2022-09-14T03:46:21.482Z,82.23
2022-09-14T03:48:49.148Z,82.24
2022-09-14T03:51:16.656Z,82.52
2022-09-14T03:53:45.250Z,82.63
2022-09-14T03:56:15.741Z,82.93
2022-09-14T03:58:43.962Z,82.57
2022-09-14T04:01:14.569Z,82.32
2022-09-14T04:03:42.094Z,82.49
2022-09-14T04:06:10.156Z,82.20
2022-09-14T04:08:40.253Z,82.02
2022-09-14T04:11:22.273Z,82.20
2022-09-14T04:13:50.162Z,82.43
2022-09-14T04:16:18.883Z,82.02
2022-09-14T04:18:45.879Z,81.17
2022-09-14T04:21:16.276Z,81.08
2022-09-14T04:24:03.477Z,80.88
2022-09-14T04:26:31.705Z,81.09
2022-09-14T04:28:59.285Z,80.97
2022-09-14T04:31:26.599Z,80.77
2022-09-14T04:33:57.192Z,80.68
2022-09-14T04:36:28.644Z,80.34
2022-09-14T04:38:58.879Z,80.09
2022-09-14T04:41:26.119Z,80.39
2022-09-14T04:43:54.405Z,79.79
2022-09-14T04:46:24.231Z,79.75
2022-09-14T04:48:51.620Z,79.33
2022-09-14T04:51:20.898Z,79.03
2022-09-14T04:53:52.907Z,79.20
2022-09-14T04:56:22.667Z,78.64
2022-09-14T04:58:52.638Z,77.52
2022-09-14T05:01:22.108Z,77.65
2022-09-14T05:03:49.972Z,77.30
2022-09-14T05:06:19.638Z,77.03
2022-09-14T05:08:46.748Z,77.43
2022-09-14T05:11:19.697Z,77.63
2022-09-14T05:13:49.952Z,77.54
2022-09-14T05:16:23.662Z,78.41
2022-09-14T05:18:51.894Z,77.83
2022-09-14T05:21:20.699Z,77.27
2022-09-14T05:23:48.192Z,76.52
2022-09-14T05:26:15.197Z,76.72
2022-09-14T05:28:42.161Z,76.03
2022-09-14T05:31:11.146Z,73.22
2022-09-14T05:33:38.170Z,70.77
2022-09-14T05:36:07.027Z,70.52
2022-09-14T05:38:36.303Z,68.39
2022-09-14T05:41:04.429Z,68.02
2022-09-14T05:43:31.350Z,67.63
2022-09-14T05:46:02.962Z,68.69
2022-09-14T05:48:34.772Z,66.44
2022-09-14T05:51:04.403Z,64.76
2022-09-14T05:53:31.392Z,64.76
2022-09-14T05:56:08.134Z,64.38
2022-09-14T05:58:36.767Z,63.40
2022-09-14T06:01:24.363Z,60.61
2022-09-14T06:03:54.717Z,59.05
2022-09-14T06:06:22.249Z,58.65
2022-09-14T06:08:52.690Z,59.21
2022-09-14T06:11:23.206Z,59.56
2022-09-14T06:13:50.529Z,60.02
2022-09-14T06:16:19.726Z,61.16
2022-09-14T06:18:48.029Z,60.98
2022-09-14T06:21:16.852Z,62.96
2022-09-14T06:23:44.453Z,61.78
2022-09-14T06:26:12.350Z,60.99
2022-09-14T06:28:39.552Z,62.72
2022-09-14T06:31:07.866Z,62.99
2022-09-14T06:33:35.714Z,63.52
2022-09-14T06:36:07.518Z,63.05
2022-09-14T06:38:34.334Z,63.77
2022-09-14T06:41:04.848Z,65.28
2022-09-14T06:43:34.134Z,63.88
2022-09-14T06:46:01.992Z,65.16
2022-09-14T06:48:31.779Z,65.46
2022-09-14T06:50:58.465Z,65.48
2022-09-14T06:53:25.362Z,63.71
2022-09-14T06:55:53.283Z,60.52
2022-09-14T06:58:20.051Z,59.12
2022-09-14T07:00:47.011Z,57.18
2022-09-14T07:03:14.069Z,57.64
2022-09-14T07:05:40.875Z,58.39
2022-09-14T07:08:11.969Z,58.61
2022-09-14T07:10:39.314Z,57.94
2022-09-14T07:13:06.090Z,57.41
2022-09-14T07:15:33.464Z,56.30
2022-09-14T07:18:00.468Z,57.14
2022-09-14T07:20:27.407Z,58.90
2022-09-14T07:22:54.166Z,60.28
2022-09-14T07:25:21.190Z,61.30
2022-09-14T07:27:48.087Z,63.16
2022-09-14T07:30:14.855Z,63.63
2022-09-14T07:32:41.851Z,64.68
2022-09-14T07:35:08.930Z,62.10
2022-09-14T07:37:35.742Z,60.57
2022-09-14T07:40:02.778Z,59.73
2022-09-14T07:42:29.722Z,55.62
2022-09-14T07:44:56.446Z,54.23
2022-09-14T07:47:23.415Z,53.91
2022-09-14T07:49:50.184Z,54.03
2022-09-14T07:52:17.155Z,55.04
2022-09-14T07:54:44.393Z,54.88
2022-09-14T07:57:11.313Z,52.02
2022-09-14T07:59:38.493Z,52.81
2022-09-14T08:02:11.160Z,52.18
2022-09-14T08:04:41.020Z,52.01
2022-09-14T08:07:08.566Z,50.36
2022-09-14T08:09:39.514Z,50.57
2022-09-14T08:12:06.582Z,51.47
2022-09-14T08:14:33.777Z,51.33
2022-09-14T08:17:01.068Z,52.05
2022-09-14T08:19:28.043Z,52.66
2022-09-14T08:21:55.079Z,54.80
2022-09-14T08:24:22.084Z,54.50
2022-09-14T08:26:49.284Z,55.97
2022-09-14T08:29:17.823Z,55.12
2022-09-14T08:31:46.160Z,54.94
2022-09-14T08:34:14.253Z,54.82
2022-09-14T08:36:42.649Z,56.22
2022-09-14T08:39:11.647Z,58.77
2022-09-14T08:41:41.374Z,57.80
2022-09-14T08:44:31.019Z,58.13
2022-09-14T08:47:05.087Z,55.95
2022-09-14T08:49:53.848Z,54.82
2022-09-14T08:52:35.847Z,53.27
2022-09-14T08:55:23.428Z,51.11
2022-09-14T08:58:14.956Z,51.71
2022-09-14T09:00:48.894Z,54.14
2022-09-14T09:03:36.537Z,55.13
2022-09-14T09:06:15.586Z,53.64
2022-09-14T09:08:49.911Z,53.71
2022-09-14T09:11:22.471Z,52.48
2022-09-14T09:13:52.120Z,51.97
2022-09-14T09:16:23.623Z,51.25
2022-09-14T09:19:05.768Z,49.47
2022-09-14T09:21:38.580Z,48.12
2022-09-14T09:24:37.518Z,48.20
2022-09-14T09:27:12.066Z,47.58
2022-09-14T09:29:39.027Z,46.66
2022-09-14T09:32:09.881Z,47.42
2022-09-14T09:34:36.726Z,47.40
2022-09-14T09:37:04.373Z,47.65
2022-09-14T09:39:31.893Z,50.00
2022-09-14T09:42:06.741Z,49.74
2022-09-14T09:45:04.039Z,51.02
2022-09-14T09:47:37.887Z,52.29
2022-09-14T09:50:13.908Z,51.70
2022-09-14T09:52:54.393Z,51.17
2022-09-14T09:55:26.156Z,52.76
2022-09-14T09:57:54.749Z,50.29
2022-09-14T10:00:27.261Z,49.38
2022-09-14T10:02:54.921Z,47.37
2022-09-14T10:05:24.002Z,47.64
2022-09-14T10:07:50.622Z,48.49
2022-09-14T10:10:21.931Z,48.25
2022-09-14T10:12:56.580Z,48.45
2022-09-14T10:15:30.727Z,45.94
2022-09-14T10:18:00.504Z,47.33
2022-09-14T10:20:27.979Z,48.58
2022-09-14T10:22:54.859Z,47.62
2022-09-14T10:25:26.102Z,48.95
2022-09-14T10:27:56.164Z,48.84
2022-09-14T10:30:32.529Z,48.78
2022-09-14T10:33:02.754Z,49.23
2022-09-14T10:35:40.307Z,48.93
2022-09-14T10:38:23.463Z,50.17
2022-09-14T10:41:06.878Z,49.49
2022-09-14T10:43:52.174Z,50.76
2022-09-14T10:46:29.655Z,48.27
2022-09-14T10:49:27.588Z,49.45
2022-09-14T10:52:17.810Z,49.10
2022-09-14T10:55:01.716Z,50.17
2022-09-14T10:57:57.085Z,48.86
2022-09-14T11:00:24.263Z,49.39
2022-09-14T11:03:17.527Z,50.51
2022-09-14T11:05:56.880Z,47.51
2022-09-14T11:08:33.215Z,46.54
2022-09-14T11:11:31.780Z,46.64
2022-09-14T11:14:05.936Z,46.06
2022-09-14T11:16:53.996Z,46.53
2022-09-14T11:20:00.065Z,45.70
2022-09-14T11:23:00.766Z,45.37
2022-09-14T11:25:48.165Z,44.07
2022-09-14T11:28:40.935Z,46.81
2022-09-14T11:31:16.440Z,45.81
2022-09-14T11:33:54.182Z,46.20
2022-09-14T11:36:28.556Z,45.87
2022-09-14T11:39:13.246Z,46.24
2022-09-14T11:41:45.480Z,45.78
2022-09-14T11:44:18.027Z,47.24
2022-09-14T11:47:04.042Z,45.06
2022-09-14T11:49:44.395Z,46.78
2022-09-14T11:52:21.161Z,46.22
2022-09-14T11:54:50.158Z,45.69
2022-09-14T11:57:20.548Z,44.39
2022-09-14T11:59:50.784Z,45.39
2022-09-14T12:02:25.320Z,45.92
2022-09-14T12:05:07.376Z,46.47
2022-09-14T12:07:59.946Z,47.91
2022-09-14T12:10:27.813Z,48.20
2022-09-14T12:12:57.154Z,48.01
2022-09-14T12:15:27.020Z,48.54
2022-09-14T12:18:24.168Z,46.08
2022-09-14T12:21:02.658Z,46.73
2022-09-14T12:23:44.232Z,47.24
2022-09-14T12:26:11.227Z,46.67
2022-09-14T12:28:38.104Z,46.90
2022-09-14T12:31:05.160Z,47.56
2022-09-14T12:33:32.323Z,47.64
2022-09-14T12:36:00.075Z,45.78
2022-09-14T12:38:29.843Z,42.43
2022-09-14T12:41:02.423Z,42.24
2022-09-14T12:43:35.337Z,42.11
2022-09-14T12:46:09.815Z,43.73
2022-09-14T12:48:45.933Z,44.63
2022-09-14T12:51:27.175Z,45.82
2022-09-14T12:53:58.157Z,45.46
2022-09-14T12:56:41.620Z,45.78
2022-09-14T12:59:26.794Z,47.27
2022-09-14T13:02:21.924Z,44.52
2022-09-14T13:04:54.244Z,45.95
2022-09-14T13:07:22.977Z,45.56
2022-09-14T13:09:52.705Z,45.30
2022-09-14T13:12:41.397Z,46.78
2022-09-14T13:15:18.981Z,46.34
2022-09-14T13:18:18.072Z,48.04
2022-09-14T13:20:53.894Z,48.86
2022-09-14T13:23:28.540Z,49.31
2022-09-14T13:25:56.248Z,50.19
2022-09-14T13:28:31.131Z,52.13
2022-09-14T13:31:01.496Z,53.51
2022-09-14T13:33:31.465Z,54.95
2022-09-14T13:36:01.701Z,56.83
2022-09-14T13:38:34.817Z,57.92
2022-09-14T13:41:08.405Z,59.27
2022-09-14T13:43:35.524Z,59.44
2022-09-14T13:46:02.730Z,60.64
2022-09-14T13:48:29.693Z,61.64
2022-09-14T13:50:56.851Z,61.61
2022-09-14T13:53:51.006Z,62.50
2022-09-14T13:56:19.495Z,63.14
2022-09-14T13:58:48.977Z,64.15
2022-09-14T14:01:40.609Z,63.97
2022-09-14T14:04:25.638Z,64.53
2022-09-14T14:07:05.420Z,66.12
2022-09-14T14:09:50.716Z,66.76
2022-09-14T14:12:27.980Z,68.16
2022-09-14T14:14:58.020Z,69.65
2022-09-14T14:17:27.725Z,69.92
2022-09-14T14:19:57.358Z,70.67
2022-09-14T14:22:35.611Z,71.77
2022-09-14T14:25:19.172Z,72.89
2022-09-14T14:27:47.780Z,74.29
2022-09-14T14:30:16.409Z,75.13
2022-09-14T14:32:43.490Z,76.61
2022-09-14T14:35:20.102Z,78.19
2022-09-14T14:37:47.945Z,79.31
2022-09-14T14:40:16.393Z,80.14
2022-09-14T14:42:44.227Z,80.48
2022-09-14T14:45:35.417Z,82.32
2022-09-14T14:48:03.850Z,83.72
2022-09-14T14:50:34.071Z,84.89
2022-09-14T14:53:01.982Z,86.69
2022-09-14T14:55:32.395Z,88.61
2022-09-14T14:58:02.593Z,90.77
2022-09-14T15:00:34.242Z,92.29
2022-09-14T15:03:01.664Z,93.36
2022-09-14T15:05:28.771Z,95.47
2022-09-14T15:07:56.227Z,98.74
2022-09-14T15:10:25.874Z,100.00
2022-09-14T15:12:52.668Z,100.00
2022-09-14T15:15:23.978Z,100.00
2022-09-14T15:17:51.951Z,100.00
2022-09-14T15:20:19.955Z,100.00
2022-09-14T15:22:48.275Z,100.00
2022-09-14T15:25:17.229Z,100.00
2022-09-14T15:27:44.222Z,100.00
2022-09-14T15:30:12.452Z,100.00
2022-09-14T15:32:40.492Z,100.00
2022-09-14T15:35:10.143Z,100.00
2022-09-14T15:37:36.956Z,100.00
2022-09-14T15:40:04.751Z,100.00
2022-09-14T15:42:31.672Z,100.00
2022-09-14T15:44:58.442Z,100.00
2022-09-14T15:47:25.424Z,100.00
2022-09-14T15:49:55.246Z,100.00
2022-09-14T15:52:22.071Z,100.00
2022-09-14T15:54:49.330Z,100.00
2022-09-14T15:57:16.320Z,100.00
2022-09-14T15:59:43.217Z,100.00
2022-09-14T16:02:12.462Z,100.00
2022-09-14T16:04:39.736Z,100.00
2022-09-14T16:07:10.050Z,100.00
2022-09-14T16:09:38.963Z,100.00
2022-09-14T16:12:07.000Z,100.00
2022-09-14T16:14:34.164Z,100.00
2022-09-14T16:17:01.630Z,100.00
2022-09-14T16:19:28.985Z,100.00
2022-09-14T16:21:55.908Z,100.00
2022-09-14T16:24:24.545Z,100.00
2022-09-14T16:26:51.585Z,100.00
2022-09-14T16:29:20.154Z,100.00
2022-09-14T16:31:48.662Z,100.00
2022-09-14T16:34:24.525Z,100.00
2022-09-14T16:36:52.072Z,100.00
2022-09-14T16:39:25.280Z,100.00
2022-09-14T16:41:55.660Z,100.00
2022-09-14T16:44:24.959Z,100.00
2022-09-14T16:46:52.343Z,100.00
2022-09-14T16:49:24.807Z,100.00
2022-09-14T16:51:53.711Z,100.00
2022-09-14T16:54:22.227Z,100.00
2022-09-14T16:56:49.263Z,100.00
2022-09-14T16:59:17.888Z,100.00
2022-09-14T17:01:49.681Z,100.00
2022-09-14T17:04:23.692Z,100.00
2022-09-14T17:06:52.167Z,100.00
2022-09-14T17:09:29.937Z,100.00
2022-09-14T17:11:57.868Z,100.00
2022-09-14T17:14:28.380Z,100.00
2022-09-14T17:16:55.680Z,100.00
2022-09-14T17:19:23.128Z,100.00
2022-09-14T17:21:50.355Z,100.00
2022-09-14T17:24:18.924Z,100.00
2022-09-14T17:26:46.711Z,100.00
2022-09-14T17:29:15.277Z,100.00
2022-09-14T17:31:43.523Z,100.00
2022-09-14T17:34:12.431Z,100.00
2022-09-14T17:36:39.826Z,100.00
2022-09-14T17:39:11.786Z,100.00
2022-09-14T17:41:40.661Z,100.00
2022-09-14T17:44:09.808Z,100.00
2022-09-14T17:46:41.378Z,100.00
2022-09-14T17:49:14.097Z,100.00
2022-09-14T17:51:41.019Z,100.00
2022-09-14T17:54:08.034Z,100.00
2022-09-14T17:56:35.220Z,100.00
2022-09-14T17:59:10.063Z,100.00
2022-09-14T18:01:37.363Z,100.00
2022-09-14T18:04:07.317Z,100.00
2022-09-14T18:06:37.492Z,100.00
2022-09-14T18:09:07.971Z,100.00
2022-09-14T18:11:36.405Z,100.00
2022-09-14T18:14:04.723Z,100.00
2022-09-14T18:16:33.129Z,100.00
2022-09-14T18:19:00.349Z,100.00
2022-09-14T18:21:27.386Z,100.00
2022-09-14T18:23:55.387Z,100.00
2022-09-14T18:26:23.728Z,100.00
2022-09-14T18:28:53.582Z,100.00
2022-09-14T18:31:20.662Z,100.00
2022-09-14T18:33:59.472Z,100.00
2022-09-14T18:36:29.460Z,100.00
2022-09-14T18:38:57.249Z,100.00
2022-09-14T18:41:24.023Z,100.00
2022-09-14T18:43:52.851Z,100.00
2022-09-14T18:46:23.431Z,100.00
2022-09-14T18:48:56.788Z,100.00
2022-09-14T18:51:23.798Z,100.00
2022-09-14T18:53:57.211Z,100.00
2022-09-14T18:56:24.961Z,100.00
2022-09-14T18:58:51.909Z,100.00
2022-09-14T19:01:18.881Z,100.00
2022-09-14T19:03:46.183Z,100.00
2022-09-14T19:06:14.964Z,100.00
2022-09-14T19:08:42.871Z,100.00
2022-09-14T19:11:12.902Z,100.00
2022-09-14T19:13:40.133Z,100.00
2022-09-14T19:16:08.622Z,100.00
2022-09-14T19:18:36.174Z,100.00
2022-09-14T19:21:09.180Z,100.00
2022-09-14T19:23:37.269Z,100.00
2022-09-14T19:26:09.790Z,100.00
2022-09-14T19:28:37.560Z,100.00
2022-09-14T19:31:09.176Z,100.00
2022-09-14T19:33:36.117Z,100.00
2022-09-14T19:36:05.376Z,100.00
2022-09-14T19:38:32.459Z,100.00
2022-09-14T19:40:59.754Z,100.00
2022-09-14T19:43:27.195Z,100.00
2022-09-14T19:45:54.304Z,100.00
2022-09-14T19:48:21.143Z,100.00
2022-09-14T19:50:47.895Z,100.00
2022-09-14T19:53:14.882Z,100.00
2022-09-14T19:55:41.769Z,100.00
2022-09-14T19:58:08.516Z,100.00
2022-09-14T20:00:36.481Z,100.00
2022-09-14T20:03:03.943Z,100.00
2022-09-14T20:05:30.887Z,100.00
2022-09-14T20:07:57.909Z,100.00
2022-09-14T20:10:26.660Z,100.00
2022-09-14T20:12:54.315Z,100.00
2022-09-14T20:15:21.290Z,100.00
2022-09-14T20:17:48.044Z,100.00
2022-09-14T20:20:17.296Z,100.00
2022-09-14T20:22:44.344Z,100.00
2022-09-14T20:25:11.192Z,100.00
2022-09-14T20:27:38.002Z,100.00
2022-09-14T20:30:06.982Z,100.00
2022-09-14T20:32:33.793Z,100.00
2022-09-14T20:35:00.603Z,100.00
2022-09-14T20:37:28.627Z,100.00
2022-09-14T20:39:55.585Z,100.00
2022-09-14T20:42:22.384Z,100.00
2022-09-14T20:44:49.374Z,100.00
2022-09-14T20:47:16.138Z,100.00
2022-09-14T20:49:42.942Z,100.00
2022-09-14T20:52:09.954Z,100.00
2022-09-14T20:54:36.978Z,100.00
2022-09-14T20:57:04.722Z,100.00
2022-09-14T20:59:31.886Z,100.00
2022-09-14T21:02:02.300Z,100.00
2022-09-14T21:04:31.570Z,100.00
2022-09-14T21:06:58.543Z,100.00
2022-09-14T21:09:26.189Z,100.00
2022-09-14T21:11:53.557Z,100.00
2022-09-14T21:14:21.272Z,100.00
2022-09-14T21:16:51.823Z,100.00
2022-09-14T21:19:25.522Z,100.00
2022-09-14T21:21:53.415Z,100.00
2022-09-14T21:24:22.223Z,100.00
2022-09-14T21:26:49.479Z,100.00
2022-09-14T21:29:20.909Z,100.00
2022-09-14T21:31:48.887Z,100.00
2022-09-14T21:34:16.438Z,100.00
2022-09-14T21:36:49.202Z,100.00
2022-09-14T21:39:21.524Z,100.00
2022-09-14T21:41:53.458Z,100.00
2022-09-14T21:44:28.254Z,100.00
2022-09-14T21:46:55.204Z,100.00
2022-09-14T21:49:22.055Z,100.00
2022-09-14T21:51:49.116Z,100.00
2022-09-14T21:54:16.285Z,100.00
2022-09-14T21:56:45.233Z,100.00
2022-09-14T21:59:15.146Z,100.00
2022-09-14T22:01:43.018Z,100.00
2022-09-14T22:04:14.981Z,100.00
2022-09-14T22:06:41.840Z,100.00
2022-09-14T22:09:08.800Z,100.00
2022-09-14T22:11:37.296Z,100.00
2022-09-14T22:14:11.002Z,100.00
2022-09-14T22:16:38.447Z,100.00
2022-09-14T22:19:26.913Z,100.00
2022-09-14T22:21:54.837Z,100.00
2022-09-14T22:24:28.221Z,100.00
2022-09-14T22:26:57.397Z,100.00
2022-09-14T22:29:24.883Z,100.00
2022-09-14T22:31:52.428Z,100.00
2022-09-14T22:34:21.237Z,100.00
2022-09-14T22:36:48.062Z,100.00
2022-09-14T22:39:14.860Z,100.00
2022-09-14T22:41:42.382Z,100.00
2022-09-14T22:44:09.162Z,100.00
2022-09-14T22:46:36.201Z,100.00
2022-09-14T22:49:03.820Z,100.00
2022-09-14T22:51:31.577Z,100.00
2022-09-14T22:53:58.690Z,100.00
2022-09-14T22:56:31.735Z,100.00
2022-09-14T22:59:00.267Z,100.00
2022-09-14T23:01:31.825Z,100.00
2022-09-14T23:04:05.776Z,100.00
2022-09-14T23:06:41.928Z,100.00
2022-09-14T23:09:11.211Z,100.00
2022-09-14T23:11:38.501Z,100.00
2022-09-14T23:14:05.336Z,100.00
2022-09-14T23:16:32.234Z,100.00
2022-09-14T23:19:01.238Z,100.00
2022-09-14T23:21:29.513Z,100.00
2022-09-14T23:24:00.342Z,100.00
2022-09-14T23:26:28.409Z,100.00
2022-09-14T23:28:58.548Z,100.00
2022-09-14T23:31:26.922Z,100.00
2022-09-14T23:33:56.290Z,100.00
2022-09-14T23:36:24.228Z,100.00
2022-09-14T23:38:51.997Z,100.00
2022-09-14T23:41:20.779Z,100.00
2022-09-14T23:43:48.095Z,100.00
2022-09-14T23:46:15.739Z,100.00
2022-09-14T23:48:42.967Z,100.00
2022-09-14T23:51:11.159Z,100.00
2022-09-14T23:53:38.801Z,100.00
2022-09-14T23:56:06.474Z,100.00
2022-09-14T23:58:33.319Z,100.00
